Terminal Aerodrome Forecast
Issued by NWS Cheyenne, WY

Home | Current Version | Previous Version | Text Only | Print | Product List | Glossary On
Versions: 1 2 3 4 5 6 7 8 9 10 11 12 13 14 15 16 17 18 19 20 21 22 23 24 25 26 27 28 29 30 31 32
226
FTUS45 KCYS 202320
TAFCYS
TAF
KCYS 202320Z 2100/2124 19015KT P6SM SCT100 SCT250
     FM210100 24012KT P6SM SCT100
     FM210400 31025G40KT P6SM BKN080
     FM211600 31022G32KT P6SM SKC=

USA.gov is the U.S. government's official web portal to all federal, state and local government web resources and services.